createdAt,value
2023-01-20T00:01:38.552Z,77.15
2023-01-20T00:04:05.833Z,76.20
2023-01-20T00:06:32.607Z,75.87
2023-01-20T00:09:00.887Z,77.51
2023-01-20T00:11:30.625Z,81.45
2023-01-20T00:13:59.470Z,86.20
2023-01-20T00:16:27.360Z,87.33
2023-01-20T00:18:55.023Z,83.47
2023-01-20T00:21:21.724Z,80.29
2023-01-20T00:23:49.335Z,77.68
2023-01-20T00:26:21.788Z,76.14
2023-01-20T00:28:49.777Z,79.50
2023-01-20T00:31:29.595Z,76.92
2023-01-20T00:34:00.611Z,74.71
2023-01-20T00:36:29.714Z,68.24
2023-01-20T00:38:56.338Z,68.81
2023-01-20T00:41:23.332Z,66.06
2023-01-20T00:43:50.080Z,63.00
2023-01-20T00:46:17.105Z,61.77
2023-01-20T00:48:44.871Z,62.37
2023-01-20T00:51:12.003Z,61.43
2023-01-20T00:53:38.642Z,59.73
2023-01-20T00:56:06.049Z,55.75
2023-01-20T00:58:32.677Z,55.37
2023-01-20T01:00:59.879Z,59.78
2023-01-20T01:03:28.224Z,66.33
2023-01-20T01:05:55.126Z,68.74
2023-01-20T01:08:21.801Z,72.83
2023-01-20T01:10:48.394Z,72.58
2023-01-20T01:13:14.968Z,72.27
2023-01-20T01:15:49.781Z,73.90
2023-01-20T01:18:17.105Z,74.79
2023-01-20T01:20:44.883Z,75.72
2023-01-20T01:23:12.312Z,73.61
2023-01-20T01:25:38.936Z,72.03
2023-01-20T01:28:05.871Z,74.15
2023-01-20T01:30:32.522Z,73.90
2023-01-20T01:32:59.183Z,72.65
2023-01-20T01:35:25.810Z,69.56
2023-01-20T01:37:52.465Z,72.71
2023-01-20T01:40:19.183Z,72.13
2023-01-20T01:42:45.807Z,69.69
2023-01-20T01:45:12.925Z,69.18
2023-01-20T01:48:09.592Z,71.12
2023-01-20T01:50:39.215Z,71.03
2023-01-20T01:53:07.167Z,70.80
2023-01-20T01:55:39.690Z,70.24
2023-01-20T01:58:09.107Z,68.98
2023-01-20T02:00:36.241Z,69.36
2023-01-20T02:03:03.035Z,72.00
2023-01-20T02:05:30.964Z,72.84
2023-01-20T02:07:59.608Z,70.77
2023-01-20T02:10:26.437Z,73.96
2023-01-20T02:12:53.799Z,73.83
2023-01-20T02:15:26.425Z,72.72
2023-01-20T02:18:42.519Z,70.66
2023-01-20T02:21:23.365Z,69.19
2023-01-20T02:24:30.038Z,69.12
2023-01-20T02:27:25.704Z,68.85
2023-01-20T02:30:25.740Z,69.76
2023-01-20T02:33:07.423Z,69.29
2023-01-20T02:35:42.656Z,68.31
2023-01-20T02:38:21.309Z,68.46
2023-01-20T02:41:09.360Z,67.69
2023-01-20T02:43:47.272Z,68.54
2023-01-20T02:46:36.264Z,68.42
2023-01-20T02:49:25.056Z,68.14
2023-01-20T02:52:01.459Z,67.77
2023-01-20T02:54:32.902Z,68.93
2023-01-20T02:57:02.465Z,68.77
2023-01-20T02:59:37.188Z,68.18
2023-01-20T03:02:10.224Z,68.14
2023-01-20T03:04:45.496Z,68.77
2023-01-20T03:07:14.150Z,69.64
2023-01-20T03:09:47.579Z,68.88
2023-01-20T03:12:19.418Z,69.34
2023-01-20T03:14:46.049Z,70.29
2023-01-20T03:17:12.745Z,71.85
2023-01-20T03:19:39.376Z,71.41
2023-01-20T03:22:06.495Z,70.45
2023-01-20T03:24:34.859Z,70.54
2023-01-20T03:27:01.806Z,71.42
2023-01-20T03:29:30.652Z,78.12
2023-01-20T03:31:59.877Z,75.07
2023-01-20T03:34:31.806Z,75.14
2023-01-20T03:37:00.635Z,77.96
2023-01-20T03:39:27.959Z,77.36
2023-01-20T03:42:14.424Z,78.44
2023-01-20T03:45:05.373Z,74.97
2023-01-20T03:47:44.035Z,77.61
2023-01-20T03:50:26.258Z,75.51
2023-01-20T03:53:04.487Z,74.55
2023-01-20T03:55:57.530Z,73.24
2023-01-20T03:58:30.543Z,72.07
2023-01-20T04:00:58.051Z,72.62
2023-01-20T04:03:32.852Z,72.06
2023-01-20T04:06:02.975Z,71.55
2023-01-20T04:08:36.819Z,72.10
2023-01-20T04:11:06.822Z,72.63
2023-01-20T04:13:34.023Z,72.74
2023-01-20T04:16:03.217Z,72.42
2023-01-20T04:18:29.950Z,72.91
2023-01-20T04:21:02.520Z,71.65
2023-01-20T04:23:36.998Z,71.43
2023-01-20T04:26:03.643Z,71.60
2023-01-20T04:28:30.247Z,71.18
2023-01-20T04:30:56.969Z,71.08
2023-01-20T04:33:23.749Z,70.99
2023-01-20T04:35:50.357Z,70.27
2023-01-20T04:38:16.947Z,71.13
2023-01-20T04:40:43.568Z,70.87
2023-01-20T04:43:10.291Z,71.66
2023-01-20T04:45:36.901Z,73.12
2023-01-20T04:48:10.046Z,74.11
2023-01-20T04:50:40.814Z,72.67
2023-01-20T04:53:07.872Z,73.99
2023-01-20T04:55:34.534Z,74.41
2023-01-20T04:58:01.156Z,74.57
2023-01-20T05:00:28.577Z,75.33
2023-01-20T05:02:59.024Z,74.46
2023-01-20T05:05:25.837Z,74.44
2023-01-20T05:07:53.496Z,74.47
2023-01-20T05:10:20.644Z,74.38
2023-01-20T05:12:47.573Z,75.49
2023-01-20T05:15:14.591Z,74.76
2023-01-20T05:17:41.432Z,74.10
2023-01-20T05:20:08.791Z,73.67
2023-01-20T05:22:35.377Z,73.31
2023-01-20T05:25:02.442Z,72.67
2023-01-20T05:27:29.063Z,73.37
2023-01-20T05:29:55.647Z,73.34
2023-01-20T05:32:22.232Z,73.56
2023-01-20T05:34:48.792Z,75.11
2023-01-20T05:37:18.123Z,76.75
2023-01-20T05:39:44.720Z,76.95
2023-01-20T05:42:11.452Z,76.23
2023-01-20T05:44:38.060Z,80.49
2023-01-20T05:47:04.751Z,80.47
2023-01-20T05:49:31.307Z,83.02
2023-01-20T05:51:57.918Z,88.21
2023-01-20T05:54:24.616Z,83.86
2023-01-20T05:56:51.181Z,79.73
2023-01-20T05:59:17.863Z,77.12
2023-01-20T06:01:44.477Z,75.99
2023-01-20T06:04:11.093Z,74.93
2023-01-20T06:06:37.929Z,74.43
2023-01-20T06:09:04.496Z,77.55
2023-01-20T06:11:31.053Z,76.35
2023-01-20T06:13:57.661Z,78.34
2023-01-20T06:16:24.305Z,85.58
2023-01-20T06:18:50.913Z,82.34
2023-01-20T06:21:17.555Z,78.71
2023-01-20T06:23:44.297Z,78.03
2023-01-20T06:26:13.654Z,78.57
2023-01-20T06:28:40.317Z,79.62
2023-01-20T06:31:09.675Z,77.15
2023-01-20T06:33:36.598Z,76.43
2023-01-20T06:36:03.961Z,75.89
2023-01-20T06:38:32.767Z,76.79
2023-01-20T06:41:04.375Z,77.16
2023-01-20T06:43:32.665Z,77.48
2023-01-20T06:46:05.343Z,77.50
2023-01-20T06:48:32.791Z,78.17
2023-01-20T06:51:08.467Z,79.10
2023-01-20T06:53:35.051Z,76.47
2023-01-20T06:56:02.294Z,77.93
2023-01-20T06:58:31.144Z,78.63
2023-01-20T07:01:03.746Z,77.18
2023-01-20T07:03:30.542Z,76.68
2023-01-20T07:06:03.116Z,75.59
2023-01-20T07:08:30.528Z,74.75
2023-01-20T07:10:57.326Z,74.46
2023-01-20T07:13:23.891Z,74.29
2023-01-20T07:15:50.520Z,73.54
2023-01-20T07:18:17.061Z,75.31
2023-01-20T07:20:43.852Z,75.21
2023-01-20T07:23:10.526Z,75.07
2023-01-20T07:25:38.397Z,76.44
2023-01-20T07:28:05.227Z,76.27
2023-01-20T07:30:31.875Z,78.11
2023-01-20T07:32:58.448Z,75.69
2023-01-20T07:35:25.007Z,76.21
2023-01-20T07:37:51.561Z,76.62
2023-01-20T07:40:18.643Z,75.76
2023-01-20T07:42:45.267Z,75.21
2023-01-20T07:45:11.978Z,73.93
2023-01-20T07:47:38.692Z,72.79
2023-01-20T07:50:05.877Z,72.52
2023-01-20T07:52:32.499Z,72.86
2023-01-20T07:54:59.093Z,72.64
2023-01-20T07:57:25.665Z,75.53
2023-01-20T07:59:52.233Z,77.50
2023-01-20T08:02:18.798Z,81.06
2023-01-20T08:04:45.431Z,78.49
2023-01-20T08:07:12.024Z,79.20
2023-01-20T08:09:40.575Z,76.95
2023-01-20T08:12:07.324Z,79.14
2023-01-20T08:14:35.172Z,78.98
2023-01-20T08:17:03.637Z,77.86
2023-01-20T08:19:30.173Z,75.16
2023-01-20T08:21:56.855Z,74.14
2023-01-20T08:24:23.421Z,72.85
2023-01-20T08:26:51.554Z,72.80
2023-01-20T08:29:18.143Z,74.08
2023-01-20T08:31:45.202Z,75.01
2023-01-20T08:34:12.430Z,74.03
2023-01-20T08:36:41.307Z,73.49
2023-01-20T08:39:10.342Z,74.44
2023-01-20T08:41:38.892Z,72.72
2023-01-20T08:44:07.702Z,71.86
2023-01-20T08:46:35.006Z,72.86
2023-01-20T08:49:01.634Z,74.03
2023-01-20T08:51:32.120Z,72.63
2023-01-20T08:53:59.279Z,72.78
2023-01-20T08:56:26.830Z,72.14
2023-01-20T08:58:54.332Z,71.46
2023-01-20T09:01:26.645Z,70.29
2023-01-20T09:04:04.837Z,71.66
2023-01-20T09:06:48.674Z,73.06
2023-01-20T09:09:17.865Z,73.92
2023-01-20T09:11:51.330Z,74.87
2023-01-20T09:14:22.969Z,73.29
2023-01-20T09:16:49.868Z,74.58
2023-01-20T09:19:17.406Z,73.44
2023-01-20T09:21:44.452Z,74.93
2023-01-20T09:24:11.141Z,74.15
2023-01-20T09:26:40.524Z,74.47
2023-01-20T09:29:15.705Z,74.55
2023-01-20T09:31:45.884Z,73.25
2023-01-20T09:34:19.317Z,72.59
2023-01-20T09:36:46.314Z,72.92
2023-01-20T09:39:32.851Z,73.10
2023-01-20T09:42:22.855Z,72.32
2023-01-20T09:45:22.778Z,71.68
2023-01-20T09:47:49.640Z,75.92
2023-01-20T09:50:44.387Z,74.03
2023-01-20T09:53:21.765Z,75.95
2023-01-20T09:55:57.740Z,74.46
2023-01-20T09:59:01.571Z,75.93
2023-01-20T10:01:36.559Z,75.81
2023-01-20T10:04:10.216Z,74.29
2023-01-20T10:06:43.212Z,72.74
2023-01-20T10:09:29.060Z,71.85
2023-01-20T10:12:18.187Z,71.19
2023-01-20T10:14:58.505Z,70.04
2023-01-20T10:17:57.282Z,71.14
2023-01-20T10:20:46.577Z,71.01
2023-01-20T10:23:51.918Z,67.09
2023-01-20T10:26:28.877Z,67.54
2023-01-20T10:29:04.052Z,66.51
2023-01-20T10:31:38.993Z,67.88
2023-01-20T10:34:15.915Z,69.09
2023-01-20T10:36:46.989Z,69.10
2023-01-20T10:39:32.683Z,69.73
2023-01-20T10:42:09.758Z,70.73
2023-01-20T10:44:36.534Z,70.81
2023-01-20T10:47:17.828Z,70.76
2023-01-20T10:49:52.690Z,70.36
2023-01-20T10:52:28.155Z,71.48
2023-01-20T10:55:01.075Z,72.35
2023-01-20T10:57:28.230Z,73.37
2023-01-20T11:00:00.902Z,74.54
2023-01-20T11:02:35.136Z,74.74
2023-01-20T11:05:24.411Z,74.58
2023-01-20T11:07:53.886Z,75.43
2023-01-20T11:10:29.309Z,76.39
2023-01-20T11:12:59.715Z,77.55
2023-01-20T11:15:33.624Z,77.09
2023-01-20T11:18:15.457Z,75.14
2023-01-20T11:20:54.048Z,75.51
2023-01-20T11:23:40.854Z,76.97
2023-01-20T11:26:21.346Z,78.15
2023-01-20T11:28:57.105Z,78.33
2023-01-20T11:31:44.284Z,79.27
2023-01-20T11:34:34.179Z,78.55
2023-01-20T11:37:06.989Z,79.23
2023-01-20T11:39:35.122Z,78.59
2023-01-20T11:42:14.435Z,76.86
2023-01-20T11:44:44.429Z,78.46
2023-01-20T11:47:17.033Z,78.89
2023-01-20T11:49:43.636Z,78.60
2023-01-20T11:52:20.960Z,77.38
2023-01-20T11:54:48.068Z,78.67
2023-01-20T11:57:17.279Z,79.81
2023-01-20T11:59:49.565Z,80.48
2023-01-20T12:02:24.871Z,82.39
2023-01-20T12:05:16.145Z,81.08
2023-01-20T12:07:46.424Z,80.25
2023-01-20T12:10:25.849Z,83.73
2023-01-20T12:13:00.098Z,84.53
2023-01-20T12:15:31.925Z,83.53
2023-01-20T12:18:01.083Z,82.45
2023-01-20T12:20:27.926Z,81.33
2023-01-20T12:22:59.177Z,81.32
2023-01-20T12:25:33.954Z,80.00
2023-01-20T12:28:10.140Z,79.12
2023-01-20T12:30:42.913Z,77.02
2023-01-20T12:33:22.811Z,78.30
2023-01-20T12:36:09.644Z,79.28
2023-01-20T12:38:47.341Z,79.91
2023-01-20T12:41:26.527Z,80.18
2023-01-20T12:44:17.892Z,79.50
2023-01-20T12:47:23.053Z,81.16
2023-01-20T12:49:52.220Z,81.85
2023-01-20T12:52:32.426Z,82.03
2023-01-20T12:55:26.614Z,82.42
2023-01-20T12:58:15.345Z,82.09
2023-01-20T13:00:47.766Z,82.41
2023-01-20T13:04:05.084Z,81.85
2023-01-20T13:06:47.246Z,81.07
2023-01-20T13:09:43.933Z,80.91
2023-01-20T13:12:39.504Z,80.34
2023-01-20T13:15:18.535Z,80.80
2023-01-20T13:18:07.388Z,80.23
2023-01-20T13:20:38.334Z,81.44
2023-01-20T13:23:06.692Z,80.82
2023-01-20T13:25:35.275Z,79.12
2023-01-20T13:28:03.184Z,79.23
2023-01-20T13:30:51.658Z,78.77
2023-01-20T13:33:34.041Z,81.35
2023-01-20T13:36:27.018Z,79.83
2023-01-20T13:39:31.469Z,80.60
2023-01-20T13:41:58.080Z,79.51
2023-01-20T13:44:39.914Z,78.60
2023-01-20T13:47:11.378Z,77.57
2023-01-20T13:49:43.799Z,75.86
2023-01-20T13:52:11.926Z,75.72
2023-01-20T13:54:43.338Z,75.74
2023-01-20T13:57:23.378Z,77.17
2023-01-20T13:59:50.371Z,76.89
2023-01-20T14:02:28.642Z,75.54
2023-01-20T14:04:56.300Z,75.62
2023-01-20T14:07:30.041Z,77.13
2023-01-20T14:09:59.712Z,75.62
2023-01-20T14:12:26.893Z,74.88
2023-01-20T14:14:54.643Z,75.56
2023-01-20T14:17:24.782Z,76.21
2023-01-20T14:19:54.238Z,77.42
2023-01-20T14:22:25.046Z,75.92
2023-01-20T14:24:54.409Z,74.24
2023-01-20T14:27:28.373Z,74.90
2023-01-20T14:30:19.443Z,77.35
2023-01-20T14:32:49.080Z,77.28
2023-01-20T14:35:33.635Z,78.26
2023-01-20T14:38:00.989Z,77.08
2023-01-20T14:40:31.231Z,74.29
2023-01-20T14:43:02.227Z,76.50
2023-01-20T14:45:32.077Z,76.03
2023-01-20T14:48:02.159Z,76.44
2023-01-20T14:50:29.076Z,74.73
2023-01-20T14:52:56.334Z,75.36
2023-01-20T14:55:30.201Z,77.01
2023-01-20T14:57:57.143Z,75.94
2023-01-20T15:00:28.371Z,75.47
2023-01-20T15:03:19.485Z,74.28
2023-01-20T15:06:17.117Z,76.73
2023-01-20T15:09:04.334Z,77.11
2023-01-20T15:11:33.499Z,78.19
2023-01-20T15:14:04.972Z,77.31
2023-01-20T15:16:43.970Z,76.37
2023-01-20T15:19:13.374Z,77.16
2023-01-20T15:22:01.030Z,77.45
2023-01-20T15:24:32.598Z,78.47
2023-01-20T15:27:01.428Z,78.53
2023-01-20T15:29:34.052Z,78.80
2023-01-20T15:32:03.149Z,79.91
2023-01-20T15:34:29.958Z,79.61
2023-01-20T15:36:56.903Z,78.33
2023-01-20T15:39:26.114Z,77.04
2023-01-20T15:41:55.555Z,77.98
2023-01-20T15:44:24.406Z,78.31
2023-01-20T15:46:52.155Z,78.16
2023-01-20T15:49:19.265Z,77.66
2023-01-20T15:51:46.565Z,80.40
2023-01-20T15:54:16.308Z,80.44
2023-01-20T15:56:43.593Z,79.09
2023-01-20T15:59:15.672Z,79.72
2023-01-20T16:01:42.983Z,78.26
2023-01-20T16:04:09.615Z,78.60
2023-01-20T16:06:37.606Z,76.52
2023-01-20T16:09:16.886Z,75.03
2023-01-20T16:11:43.540Z,75.11
2023-01-20T16:14:10.135Z,76.99
2023-01-20T16:16:36.804Z,76.22
2023-01-20T16:19:04.729Z,76.10
2023-01-20T16:21:31.844Z,74.13
2023-01-20T16:23:59.039Z,74.04
2023-01-20T16:26:28.735Z,75.59
2023-01-20T16:28:57.685Z,76.19
2023-01-20T16:31:25.939Z,77.20
2023-01-20T16:33:53.336Z,76.53
2023-01-20T16:36:21.559Z,77.23
2023-01-20T16:38:49.262Z,76.80
2023-01-20T16:41:24.054Z,76.28
2023-01-20T16:43:52.696Z,75.25
2023-01-20T16:46:23.584Z,74.86
2023-01-20T16:48:50.922Z,74.14
2023-01-20T16:51:22.735Z,72.37
2023-01-20T16:53:49.403Z,73.08
2023-01-20T16:56:21.963Z,71.57
2023-01-20T16:58:50.269Z,72.34
2023-01-20T17:01:21.206Z,73.30
2023-01-20T17:03:48.379Z,75.55
2023-01-20T17:06:18.175Z,74.95
2023-01-20T17:08:51.029Z,75.49
2023-01-20T17:11:22.340Z,75.25
2023-01-20T17:13:49.404Z,75.07
2023-01-20T17:16:16.894Z,72.74
2023-01-20T17:18:46.540Z,73.00
2023-01-20T17:21:14.336Z,70.44
2023-01-20T17:23:41.467Z,69.80
2023-01-20T17:26:09.505Z,69.60
2023-01-20T17:28:36.168Z,68.94
2023-01-20T17:31:06.553Z,70.21
2023-01-20T17:33:33.624Z,70.18
2023-01-20T17:36:05.869Z,73.64
2023-01-20T17:38:34.564Z,73.23
2023-01-20T17:41:02.786Z,73.63
2023-01-20T17:43:34.210Z,73.73
2023-01-20T17:46:02.267Z,73.53
2023-01-20T17:48:29.313Z,72.44
2023-01-20T17:50:59.456Z,70.99
2023-01-20T17:53:26.716Z,70.98
2023-01-20T17:56:06.633Z,71.34
2023-01-20T17:58:37.886Z,71.76
2023-01-20T18:01:19.056Z,71.74
2023-01-20T18:03:47.387Z,72.17
2023-01-20T18:06:16.030Z,71.95
2023-01-20T18:08:44.293Z,71.88
2023-01-20T18:11:15.095Z,72.26
2023-01-20T18:13:42.367Z,71.76
2023-01-20T18:16:11.781Z,72.12
2023-01-20T18:18:39.562Z,74.14
2023-01-20T18:21:20.330Z,72.42
2023-01-20T18:23:48.692Z,73.03
2023-01-20T18:26:18.792Z,72.01
2023-01-20T18:28:47.997Z,71.21
2023-01-20T18:31:19.984Z,70.82
2023-01-20T18:33:49.406Z,69.19
2023-01-20T18:36:24.656Z,71.58
2023-01-20T18:39:02.217Z,72.53
2023-01-20T18:41:30.647Z,71.64
2023-01-20T18:43:57.868Z,71.98
2023-01-20T18:46:25.649Z,71.83
2023-01-20T18:48:54.796Z,73.26
2023-01-20T18:51:23.892Z,71.65
2023-01-20T18:53:59.746Z,70.68
2023-01-20T18:56:27.976Z,69.80
2023-01-20T18:58:55.948Z,70.15
2023-01-20T19:01:32.561Z,70.87
2023-01-20T19:04:00.223Z,70.97
2023-01-20T19:06:34.429Z,71.37
2023-01-20T19:09:02.362Z,71.39
2023-01-20T19:11:31.686Z,69.94
2023-01-20T19:13:59.109Z,70.27
2023-01-20T19:16:28.412Z,70.12
2023-01-20T19:18:57.488Z,70.49
2023-01-20T19:21:26.003Z,69.84
2023-01-20T19:23:55.643Z,68.89
2023-01-20T19:26:24.849Z,68.70
2023-01-20T19:29:02.739Z,67.70
2023-01-20T19:31:32.095Z,68.29
2023-01-20T19:33:59.274Z,68.59
2023-01-20T19:36:26.220Z,67.99
2023-01-20T19:38:52.889Z,68.20
2023-01-20T19:41:28.225Z,67.40
2023-01-20T19:43:58.416Z,69.74
2023-01-20T19:46:27.676Z,68.90
2023-01-20T19:48:56.584Z,69.86
2023-01-20T19:51:23.779Z,71.10
2023-01-20T19:53:55.685Z,69.84
2023-01-20T19:56:22.323Z,69.47
2023-01-20T19:58:48.990Z,71.04
2023-01-20T20:01:20.095Z,70.79
2023-01-20T20:03:47.384Z,70.55
2023-01-20T20:06:37.951Z,68.18
2023-01-20T20:09:10.451Z,68.68
2023-01-20T20:11:38.986Z,68.75
2023-01-20T20:14:08.872Z,69.36
2023-01-20T20:16:38.411Z,71.00
2023-01-20T20:19:07.546Z,72.45
2023-01-20T20:21:35.109Z,73.41
2023-01-20T20:24:03.243Z,72.00
2023-01-20T20:26:32.225Z,71.68
2023-01-20T20:29:00.237Z,72.83
2023-01-20T20:31:29.578Z,72.86
2023-01-20T20:34:00.665Z,71.16
2023-01-20T20:36:33.505Z,71.62
2023-01-20T20:39:02.591Z,71.41
2023-01-20T20:41:31.719Z,72.41
2023-01-20T20:44:00.402Z,71.96
2023-01-20T20:46:28.390Z,70.93
2023-01-20T20:48:56.627Z,70.27
2023-01-20T20:51:26.265Z,70.34
2023-01-20T20:53:57.845Z,71.08
2023-01-20T20:56:27.911Z,70.87
2023-01-20T20:59:01.412Z,69.71
2023-01-20T21:01:30.240Z,69.97
2023-01-20T21:03:58.188Z,69.68
2023-01-20T21:06:25.676Z,70.71
2023-01-20T21:08:53.065Z,69.25
2023-01-20T21:11:24.134Z,69.26
2023-01-20T21:13:51.750Z,70.11
2023-01-20T21:16:22.221Z,69.96
2023-01-20T21:18:50.193Z,71.96
2023-01-20T21:21:19.937Z,71.09
2023-01-20T21:23:55.319Z,70.88
2023-01-20T21:26:23.837Z,71.04
2023-01-20T21:28:50.452Z,70.29
2023-01-20T21:31:21.043Z,69.40
2023-01-20T21:33:53.635Z,68.58
2023-01-20T21:36:21.561Z,68.19
2023-01-20T21:38:51.075Z,67.63
2023-01-20T21:41:19.217Z,68.13
2023-01-20T21:44:05.958Z,68.64
2023-01-20T21:46:40.355Z,69.98
2023-01-20T21:49:27.339Z,69.43
2023-01-20T21:52:13.504Z,71.29
2023-01-20T21:54:41.440Z,70.32
2023-01-20T21:57:08.335Z,73.16
2023-01-20T21:59:34.926Z,74.64
2023-01-20T22:02:02.449Z,76.56
2023-01-20T22:04:29.130Z,73.95
2023-01-20T22:06:55.810Z,74.56
2023-01-20T22:09:22.443Z,75.51
2023-01-20T22:11:49.564Z,77.59
2023-01-20T22:14:18.104Z,78.14
2023-01-20T22:16:49.716Z,76.16
2023-01-20T22:19:16.710Z,73.95
2023-01-20T22:21:43.348Z,71.91
2023-01-20T22:24:10.791Z,75.86
2023-01-20T22:26:37.598Z,77.19
2023-01-20T22:29:04.301Z,73.66
2023-01-20T22:31:32.035Z,73.47
2023-01-20T22:34:04.198Z,70.90
2023-01-20T22:36:31.118Z,71.38
2023-01-20T22:38:57.749Z,72.71
2023-01-20T22:41:24.414Z,71.72
2023-01-20T22:43:51.453Z,71.20
2023-01-20T22:46:20.621Z,70.72
2023-01-20T22:48:47.849Z,70.48
2023-01-20T22:51:20.323Z,70.79
2023-01-20T22:53:47.512Z,69.60
2023-01-20T22:56:20.190Z,70.86
2023-01-20T22:58:47.278Z,74.24
2023-01-20T23:01:15.265Z,73.55
2023-01-20T23:03:42.217Z,71.53
2023-01-20T23:06:09.813Z,69.81
2023-01-20T23:08:37.092Z,72.63
2023-01-20T23:11:08.046Z,71.53
2023-01-20T23:13:41.287Z,70.64
2023-01-20T23:16:13.643Z,72.88
2023-01-20T23:18:40.291Z,74.50
2023-01-20T23:21:07.041Z,73.43
2023-01-20T23:23:33.808Z,72.05
2023-01-20T23:26:21.400Z,69.44
2023-01-20T23:28:50.404Z,69.83
2023-01-20T23:31:18.329Z,70.67
2023-01-20T23:33:45.136Z,69.99
2023-01-20T23:36:14.590Z,71.12
2023-01-20T23:38:42.227Z,71.84
2023-01-20T23:41:09.054Z,73.38
2023-01-20T23:43:35.795Z,70.57
2023-01-20T23:46:05.085Z,69.60
2023-01-20T23:48:32.437Z,71.18
2023-01-20T23:51:02.791Z,72.15
2023-01-20T23:53:31.324Z,71.83
2023-01-20T23:56:07.664Z,74.06
2023-01-20T23:58:34.291Z,73.62
